Terminal Aerodrome Forecast
Issued by NWS

Home | Current Version | Previous Version | Text Only | Print | Product List | Glossary On
Versions: 1 2 3 4 5 6 7 8 9 10 11 12 13
645
FTUS46 KSGX 301720
TAFSNA
TAF
KSNA 301720Z 3018/3118 22010KT P6SM SCT015 SCT150
     FM310200 VRB04KT P6SM FEW012
     FM310900 VRB04KT P6SM BKN014
     FM311600 VRB04KT P6SM SCT015=

USA.gov is the U.S. government's official web portal to all federal, state and local government web resources and services.